Time;durP1;ratioP1;P1;durP2;ratioP2;P2;SDS_P1;SDS_P2;PMS_P1;PMS_P2;Temp;Humidity;BMP_temperature;BMP_pressure;BME280_temperature;BME280_humidity;BME280_pressure;Samples;Min_cycle;Max_cycle;Signal;HPM_P1;HPM_P2
2021/10/16 00:00:11;;;;;;;10.00;6.13;;;4.40;99.90;;;;;;4951190;28;20672;-59
2021/10/16 00:02:37;;;;;;;8.00;6.17;;;4.30;99.90;;;;;;4950944;29;20170;-60
2021/10/16 00:05:03;;;;;;;11.80;5.10;;;4.30;99.90;;;;;;4950687;29;20733;-58
2021/10/16 00:07:29;;;;;;;13.73;6.20;;;4.30;99.90;;;;;;4939046;29;20419;-59
2021/10/16 00:09:55;;;;;;;8.60;5.37;;;4.30;99.90;;;;;;4948803;28;20803;-59
2021/10/16 00:12:21;;;;;;;8.87;5.67;;;4.20;99.90;;;;;;4949833;29;20178;-58
2021/10/16 00:14:47;;;;;;;9.80;5.83;;;4.20;99.90;;;;;;4948454;29;20222;-59
2021/10/16 00:17:13;;;;;;;9.90;5.93;;;4.20;99.90;;;;;;4962645;28;20963;-59
2021/10/16 00:19:38;;;;;;;10.10;6.27;;;4.20;99.90;;;;;;4950296;29;21391;-59
2021/10/16 00:22:04;;;;;;;10.57;6.23;;;4.20;99.90;;;;;;4951343;29;20193;-58
2021/10/16 00:24:31;;;;;;;8.30;5.63;;;4.20;99.90;;;;;;4950499;28;20202;-59
2021/10/16 00:26:57;;;;;;;19.53;5.40;;;4.20;99.90;;;;;;4949810;28;20179;-59
2021/10/16 00:29:23;;;;;;;11.27;4.93;;;4.20;99.90;;;;;;4947426;29;20442;-59
2021/10/16 00:31:48;;;;;;;15.40;4.80;;;4.20;99.90;;;;;;4950300;28;20811;-59
2021/10/16 00:34:15;;;;;;;9.30;5.70;;;4.10;99.90;;;;;;4951921;29;20434;-58
2021/10/16 00:36:41;;;;;;;10.07;5.30;;;4.10;99.90;;;;;;4965815;28;20234;-59
2021/10/16 00:39:07;;;;;;;10.03;5.53;;;4.10;99.90;;;;;;4950188;28;20449;-60
2021/10/16 00:41:33;;;;;;;7.83;5.10;;;4.10;99.90;;;;;;4951657;28;20349;-58
2021/10/16 00:44:18;;;;;;;9.20;5.60;;;4.00;99.90;;;;;;4965966;28;20717;-59
2021/10/16 00:46:44;;;;;;;9.00;6.13;;;4.00;99.90;;;;;;4950690;29;20540;-59
2021/10/16 00:49:11;;;;;;;8.20;5.13;;;4.00;99.90;;;;;;4945758;28;20511;-59
2021/10/16 00:51:37;;;;;;;7.73;5.10;;;4.00;99.90;;;;;;4948125;28;20841;-59
2021/10/16 00:54:07;;;;;;;10.20;5.80;;;3.90;99.90;;;;;;4949525;29;20421;-59
2021/10/16 00:56:37;;;;;;;15.97;7.10;;;3.90;99.90;;;;;;4949749;28;20428;-59
2021/10/16 00:59:05;;;;;;;11.10;6.53;;;3.90;99.90;;;;;;4948081;29;20434;-59
2021/10/16 01:01:32;;;;;;;12.10;7.40;;;3.90;99.90;;;;;;4948780;28;20500;-57
2021/10/16 01:03:58;;;;;;;18.70;7.27;;;3.90;99.90;;;;;;4951737;28;20509;-59
2021/10/16 01:06:24;;;;;;;18.30;8.03;;;3.90;99.90;;;;;;4950722;29;20454;-60
2021/10/16 01:08:52;;;;;;;13.00;6.20;;;3.90;99.90;;;;;;4950549;28;20477;-59
2021/10/16 01:11:17;;;;;;;10.87;5.83;;;3.90;99.90;;;;;;4949960;28;20193;-59
2021/10/16 01:13:43;;;;;;;11.53;5.93;;;3.90;99.90;;;;;;4949967;29;20418;-59
2021/10/16 01:16:09;;;;;;;19.33;6.83;;;3.90;99.90;;;;;;4945529;29;20214;-60
2021/10/16 01:18:35;;;;;;;43.57;8.47;;;3.90;99.90;;;;;;4949594;29;20461;-59
2021/10/16 01:21:05;;;;;;;27.03;8.70;;;3.90;99.90;;;;;;4950938;29;20205;-59
2021/10/16 01:23:35;;;;;;;14.33;7.53;;;3.90;99.90;;;;;;4939658;28;20552;-60
2021/10/16 01:26:06;;;;;;;12.93;7.20;;;3.90;99.90;;;;;;4946368;28;20509;-59
2021/10/16 01:28:32;;;;;;;19.43;7.30;;;3.90;99.90;;;;;;4949280;29;20406;-59
2021/10/16 01:30:58;;;;;;;15.23;8.00;;;3.90;99.90;;;;;;4948188;28;20430;-59
2021/10/16 01:33:28;;;;;;;13.53;8.07;;;3.90;99.90;;;;;;4950851;28;20414;-59
2021/10/16 01:36:05;;;;;;;14.87;8.17;;;3.90;99.90;;;;;;4946342;28;20446;-59
2021/10/16 01:38:32;;;;;;;22.17;7.80;;;3.90;99.90;;;;;;4945925;29;20508;-59
2021/10/16 01:40:59;;;;;;;13.77;7.70;;;3.80;99.90;;;;;;4947986;29;20942;-59
2021/10/16 01:43:26;;;;;;;13.73;7.37;;;3.80;99.90;;;;;;4947881;29;20970;-58
2021/10/16 01:45:52;;;;;;;12.20;7.40;;;3.80;99.90;;;;;;4947033;28;20497;-59
2021/10/16 01:48:23;;;;;;;14.67;6.90;;;3.80;99.90;;;;;;4947708;29;20470;-58
2021/10/16 01:50:49;;;;;;;14.20;7.20;;;3.90;99.90;;;;;;4946750;29;20501;-58
2021/10/16 01:53:15;;;;;;;28.23;7.77;;;3.90;99.90;;;;;;4946486;29;20442;-59
2021/10/16 01:55:41;;;;;;;19.73;7.47;;;3.90;99.90;;;;;;4947753;28;20459;-58
2021/10/16 01:58:08;;;;;;;26.07;8.07;;;3.90;99.90;;;;;;4948129;28;20462;-59
2021/10/16 02:00:35;;;;;;;40.67;8.53;;;3.90;99.90;;;;;;4945229;29;20214;-58
2021/10/16 02:03:01;;;;;;;35.30;7.33;;;3.90;99.90;;;;;;4947164;29;20503;-58
2021/10/16 02:05:27;;;;;;;25.27;7.97;;;3.80;99.90;;;;;;4946406;29;20874;-59
2021/10/16 02:07:52;;;;;;;56.20;8.53;;;3.70;99.90;;;;;;4946522;28;20530;-58
2021/10/16 02:10:18;;;;;;;43.90;8.07;;;3.70;99.90;;;;;;4952504;29;20453;-59
2021/10/16 02:12:45;;;;;;;124.30;9.70;;;3.60;99.90;;;;;;4953780;29;20182;-57
2021/10/16 02:15:11;;;;;;;35.97;7.70;;;3.60;99.90;;;;;;4950283;28;20189;-59
2021/10/16 02:17:36;;;;;;;60.10;8.70;;;3.50;99.90;;;;;;4953552;28;20425;-57
2021/10/16 02:20:02;;;;;;;64.10;8.70;;;3.50;99.90;;;;;;4953214;29;20253;-59
2021/10/16 02:22:28;;;;;;;40.50;8.53;;;3.50;99.90;;;;;;4952714;29;20178;-58
2021/10/16 02:24:54;;;;;;;51.53;8.63;;;3.40;99.90;;;;;;4952903;28;20970;-60
2021/10/16 02:27:19;;;;;;;117.60;11.30;;;3.40;99.90;;;;;;4952246;28;20173;-59
2021/10/16 02:29:45;;;;;;;64.50;9.60;;;3.40;99.90;;;;;;4953963;29;20209;-59
2021/10/16 02:32:11;;;;;;;85.70;9.10;;;3.40;99.90;;;;;;4954057;28;20175;-57
2021/10/16 02:34:37;;;;;;;44.77;8.27;;;3.30;99.90;;;;;;4953873;29;20261;-59
2021/10/16 02:37:03;;;;;;;32.33;6.80;;;3.30;99.90;;;;;;4953163;28;20618;-58
2021/10/16 02:39:29;;;;;;;26.20;8.60;;;3.30;99.90;;;;;;4953813;28;20449;-59
2021/10/16 02:41:59;;;;;;;41.50;7.63;;;3.30;99.90;;;;;;4954216;28;20791;-57
2021/10/16 02:44:28;;;;;;;24.93;7.10;;;3.30;99.90;;;;;;4951464;29;20227;-59
2021/10/16 02:46:54;;;;;;;67.60;8.13;;;3.30;99.90;;;;;;4952482;29;20461;-57
2021/10/16 02:49:20;;;;;;;38.93;7.77;;;3.30;99.90;;;;;;4951902;28;20476;-59
2021/10/16 02:51:46;;;;;;;87.63;8.53;;;3.20;99.90;;;;;;4952895;28;20816;-59
2021/10/16 02:54:12;;;;;;;67.43;8.93;;;3.20;99.90;;;;;;4954037;28;20178;-59
2021/10/16 02:56:37;;;;;;;85.73;11.77;;;3.20;99.90;;;;;;4953000;28;20418;-58
2021/10/16 02:59:03;;;;;;;31.13;9.50;;;3.10;99.90;;;;;;4953544;28;20202;-58
2021/10/16 03:01:28;;;;;;;37.17;8.67;;;3.10;99.90;;;;;;4967528;28;21542;-58
2021/10/16 03:03:54;;;;;;;32.67;8.70;;;3.10;99.90;;;;;;4951952;28;20636;-59
2021/10/16 03:06:20;;;;;;;27.83;8.03;;;3.10;99.90;;;;;;4952186;28;20582;-57
2021/10/16 03:08:46;;;;;;;18.33;8.43;;;3.10;99.90;;;;;;4954161;28;20177;-59
2021/10/16 03:11:11;;;;;;;22.50;7.00;;;3.20;99.90;;;;;;4952153;28;20182;-58
2021/10/16 03:13:38;;;;;;;11.50;6.60;;;3.20;99.90;;;;;;4953823;29;20208;-59
2021/10/16 03:16:04;;;;;;;21.23;6.47;;;3.30;99.90;;;;;;4953445;28;20572;-58
2021/10/16 03:18:30;;;;;;;11.60;5.70;;;3.20;99.90;;;;;;4964897;28;20444;-58
2021/10/16 03:20:56;;;;;;;8.50;5.07;;;3.20;99.90;;;;;;4948460;28;20437;-58
2021/10/16 03:23:22;;;;;;;15.37;6.40;;;3.10;99.90;;;;;;4949501;29;20454;-59
2021/10/16 03:25:47;;;;;;;13.07;6.57;;;3.10;99.90;;;;;;4949637;28;20701;-58
2021/10/16 03:28:13;;;;;;;32.47;7.70;;;3.10;99.90;;;;;;4950477;29;20213;-59
2021/10/16 03:30:39;;;;;;;28.73;7.70;;;3.10;99.90;;;;;;4950407;29;20631;-58
2021/10/16 03:33:05;;;;;;;19.07;7.67;;;3.00;99.90;;;;;;4964677;28;20658;-58
2021/10/16 03:35:32;;;;;;;16.43;7.30;;;3.00;99.90;;;;;;4949856;28;20171;-56
2021/10/16 03:37:58;;;;;;;20.30;7.20;;;3.00;99.90;;;;;;4966126;28;20965;-59
2021/10/16 03:40:23;;;;;;;25.43;7.80;;;3.00;99.90;;;;;;4947183;29;20461;-59
2021/10/16 03:42:49;;;;;;;22.63;9.47;;;3.00;99.90;;;;;;4948797;28;20739;-60
2021/10/16 03:45:15;;;;;;;22.17;9.30;;;3.00;99.90;;;;;;4949609;29;21077;-58
2021/10/16 03:47:41;;;;;;;28.03;9.70;;;3.00;99.90;;;;;;4947877;29;20426;-59
2021/10/16 03:50:07;;;;;;;63.10;9.60;;;3.10;99.90;;;;;;4949683;28;20226;-58
2021/10/16 03:52:33;;;;;;;29.87;7.47;;;3.10;99.90;;;;;;4950002;29;20178;-59
2021/10/16 03:54:59;;;;;;;63.53;9.03;;;3.10;99.90;;;;;;4948021;28;20442;-60
2021/10/16 03:57:25;;;;;;;106.20;9.77;;;3.10;99.90;;;;;;4949686;28;20216;-59
2021/10/16 03:59:50;;;;;;;80.13;9.53;;;3.10;99.90;;;;;;4948897;28;20222;-58
2021/10/16 04:02:18;;;;;;;21.37;7.87;;;3.10;99.90;;;;;;4964805;28;20231;-59
2021/10/16 04:04:44;;;;;;;64.50;8.23;;;3.00;99.90;;;;;;4947758;28;20913;-57
2021/10/16 04:07:10;;;;;;;25.90;8.20;;;3.00;99.90;;;;;;4949999;28;21415;-59
2021/10/16 04:09:36;;;;;;;17.77;7.60;;;3.00;99.90;;;;;;4947532;28;20477;-59
2021/10/16 04:12:01;;;;;;;17.97;7.33;;;3.00;99.90;;;;;;4950456;29;20257;-57
2021/10/16 04:14:27;;;;;;;11.00;6.97;;;3.00;99.90;;;;;;4961055;28;20218;-59
2021/10/16 04:16:53;;;;;;;26.33;8.30;;;3.00;99.90;;;;;;4948137;29;20401;-59
2021/10/16 04:19:18;;;;;;;29.23;8.83;;;3.00;99.90;;;;;;4947190;28;20554;-59
2021/10/16 04:21:44;;;;;;;26.87;7.50;;;3.00;99.90;;;;;;4949967;29;20183;-59
2021/10/16 04:24:10;;;;;;;10.80;6.23;;;3.00;99.90;;;;;;4948917;29;20217;-59
2021/10/16 04:26:35;;;;;;;14.70;6.53;;;3.00;99.90;;;;;;4946806;28;20179;-59
2021/10/16 04:29:01;;;;;;;26.07;6.27;;;3.00;99.90;;;;;;4950025;29;20206;-59
2021/10/16 04:31:27;;;;;;;12.20;7.10;;;3.00;99.90;;;;;;4948306;28;20225;-59
2021/10/16 04:33:53;;;;;;;18.60;6.83;;;3.00;99.90;;;;;;4947922;29;20455;-59
2021/10/16 04:36:18;;;;;;;27.77;7.00;;;3.00;99.90;;;;;;4948175;29;20186;-59
2021/10/16 04:38:47;;;;;;;12.10;6.27;;;2.90;99.90;;;;;;4961658;28;20186;-59
2021/10/16 04:41:13;;;;;;;16.43;6.70;;;2.90;99.90;;;;;;4945379;28;20547;-57
2021/10/16 04:43:41;;;;;;;17.70;6.30;;;2.90;99.90;;;;;;4949099;28;20425;-59
2021/10/16 04:46:08;;;;;;;8.43;5.70;;;2.90;99.90;;;;;;4942989;28;20237;-58
2021/10/16 04:48:39;;;;;;;14.00;6.90;;;2.90;99.90;;;;;;4951101;28;20529;-59
2021/10/16 04:51:05;;;;;;;12.53;6.47;;;2.90;99.90;;;;;;4947880;29;20482;-59
2021/10/16 04:53:31;;;;;;;10.67;5.57;;;2.90;99.90;;;;;;4947959;28;20812;-57
2021/10/16 04:55:57;;;;;;;9.57;5.90;;;2.90;99.90;;;;;;4948487;28;20441;-59
2021/10/16 04:58:22;;;;;;;15.47;5.50;;;2.80;99.90;;;;;;4949978;28;20194;-59
2021/10/16 05:00:48;;;;;;;7.13;5.37;;;2.80;99.90;;;;;;4949129;28;20217;-60
2021/10/16 05:03:13;;;;;;;23.07;5.70;;;2.80;99.90;;;;;;4952495;28;20659;-59
2021/10/16 05:05:39;;;;;;;14.27;5.90;;;2.70;99.90;;;;;;4951317;29;20208;-59
2021/10/16 05:08:06;;;;;;;13.93;5.40;;;2.70;99.90;;;;;;4966283;28;20171;-59
2021/10/16 05:10:33;;;;;;;16.03;5.87;;;2.70;99.90;;;;;;4949973;28;20194;-60
2021/10/16 05:12:58;;;;;;;10.13;4.50;;;2.60;99.90;;;;;;4953261;28;20431;-60
2021/10/16 05:15:24;;;;;;;9.10;5.93;;;2.60;99.90;;;;;;4964745;28;20836;-59
2021/10/16 05:17:50;;;;;;;8.83;5.33;;;2.60;99.90;;;;;;4950799;28;20190;-59
2021/10/16 05:20:16;;;;;;;10.00;5.40;;;2.60;99.90;;;;;;4948649;28;20206;-60
2021/10/16 05:22:41;;;;;;;16.30;5.60;;;2.60;99.90;;;;;;4965308;28;20660;-60
2021/10/16 05:25:07;;;;;;;9.73;5.10;;;2.60;99.90;;;;;;4950928;28;21046;-60
2021/10/16 05:27:33;;;;;;;7.83;5.20;;;2.50;99.90;;;;;;4938923;28;20179;-58
2021/10/16 05:29:58;;;;;;;8.77;5.03;;;2.50;99.90;;;;;;4944284;28;21135;-60
2021/10/16 05:32:24;;;;;;;7.63;4.90;;;2.50;99.90;;;;;;4946029;29;20654;-58
2021/10/16 05:34:50;;;;;;;9.77;4.87;;;2.50;99.90;;;;;;4948665;29;20189;-58
2021/10/16 05:37:16;;;;;;;10.50;5.30;;;2.40;99.90;;;;;;4949185;29;20187;-59
2021/10/16 05:39:41;;;;;;;7.93;4.97;;;2.40;99.90;;;;;;4951819;28;20194;-60
2021/10/16 05:42:07;;;;;;;12.37;4.63;;;2.40;99.90;;;;;;4947365;28;20441;-60
2021/10/16 05:44:34;;;;;;;9.47;5.20;;;2.40;99.90;;;;;;4964374;28;20573;-59
2021/10/16 05:46:59;;;;;;;8.57;4.67;;;2.30;99.90;;;;;;4951680;28;20884;-59
2021/10/16 05:49:25;;;;;;;17.17;5.50;;;2.20;99.90;;;;;;4950096;29;20481;-58
2021/10/16 05:51:51;;;;;;;9.20;4.50;;;2.20;99.90;;;;;;4945405;28;20794;-59
2021/10/16 05:54:17;;;;;;;14.10;4.80;;;2.20;99.90;;;;;;4948722;28;20185;-60
2021/10/16 05:56:42;;;;;;;21.93;5.50;;;2.20;99.90;;;;;;4946719;28;20557;-59
2021/10/16 05:59:08;;;;;;;14.10;5.57;;;2.20;99.90;;;;;;4948442;28;20460;-59
2021/10/16 06:01:33;;;;;;;8.17;3.93;;;2.20;99.90;;;;;;4946962;28;20201;-58
2021/10/16 06:03:59;;;;;;;22.63;4.90;;;2.20;99.90;;;;;;4950630;29;20256;-59
2021/10/16 06:06:25;;;;;;;14.00;5.63;;;2.20;99.90;;;;;;4944827;28;20269;-59
2021/10/16 06:08:50;;;;;;;16.50;5.60;;;2.20;99.90;;;;;;4945320;28;20195;-60
2021/10/16 06:11:16;;;;;;;8.77;5.57;;;2.30;99.90;;;;;;4962665;28;20270;-59
2021/10/16 06:13:42;;;;;;;10.80;5.33;;;2.30;99.90;;;;;;4949666;29;20178;-59
2021/10/16 06:16:07;;;;;;;8.70;5.50;;;2.30;99.90;;;;;;4947281;29;20185;-58
2021/10/16 06:18:33;;;;;;;7.77;5.67;;;2.40;99.90;;;;;;4950528;29;20178;-59
2021/10/16 06:21:00;;;;;;;10.43;6.80;;;2.40;99.90;;;;;;4945667;28;20415;-59
2021/10/16 06:23:26;;;;;;;22.40;7.07;;;2.40;99.90;;;;;;4947514;29;20652;-59
2021/10/16 06:25:51;;;;;;;15.63;7.20;;;2.40;99.90;;;;;;4948887;28;20458;-58
2021/10/16 06:28:17;;;;;;;15.63;7.33;;;2.40;99.90;;;;;;4950218;28;20194;-57
2021/10/16 06:30:43;;;;;;;50.80;8.63;;;2.40;99.90;;;;;;4944664;29;20804;-58
2021/10/16 06:33:09;;;;;;;14.30;7.70;;;2.50;99.90;;;;;;4949266;28;20668;-57
2021/10/16 06:35:41;;;;;;;16.40;6.60;;;2.50;99.90;;;;;;4948473;28;20449;-57
2021/10/16 06:38:08;;;;;;;11.77;7.00;;;2.50;99.90;;;;;;4944407;28;20438;-58
2021/10/16 06:40:33;;;;;;;21.23;7.17;;;2.50;99.90;;;;;;4947965;29;20969;-57
2021/10/16 06:42:59;;;;;;;10.37;6.30;;;2.50;99.90;;;;;;4948179;29;20446;-58
2021/10/16 06:45:26;;;;;;;15.00;7.47;;;2.60;99.90;;;;;;4948421;29;20451;-58
2021/10/16 06:47:51;;;;;;;17.10;6.53;;;2.60;99.90;;;;;;4947730;29;20199;-58
2021/10/16 06:50:17;;;;;;;15.70;7.00;;;2.70;99.90;;;;;;4948651;29;20472;-58
2021/10/16 06:52:43;;;;;;;24.93;7.07;;;2.80;99.90;;;;;;4945020;29;20187;-58
2021/10/16 06:55:08;;;;;;;15.50;7.63;;;2.80;99.90;;;;;;4949509;28;20185;-57
2021/10/16 06:57:34;;;;;;;13.63;7.67;;;2.80;99.90;;;;;;4945758;28;20190;-56
2021/10/16 07:00:00;;;;;;;19.53;7.57;;;2.90;99.90;;;;;;4953023;28;20598;-56
2021/10/16 07:02:26;;;;;;;16.93;7.80;;;2.90;99.90;;;;;;4961757;28;20191;-58
2021/10/16 07:04:51;;;;;;;14.83;7.63;;;3.00;99.90;;;;;;4950512;28;20199;-58
2021/10/16 07:07:17;;;;;;;15.53;8.03;;;3.00;99.90;;;;;;4946554;28;20178;-62
2021/10/16 07:09:43;;;;;;;18.33;7.27;;;3.10;99.90;;;;;;4946870;28;20287;-58
2021/10/16 07:12:09;;;;;;;14.00;7.47;;;3.20;99.90;;;;;;4947347;28;20237;-59
2021/10/16 07:14:35;;;;;;;13.90;7.57;;;3.20;99.90;;;;;;4958509;28;20182;-58
2021/10/16 07:17:01;;;;;;;12.93;7.40;;;3.30;99.90;;;;;;4951285;29;20440;-58
2021/10/16 07:19:27;;;;;;;10.30;6.03;;;3.30;99.90;;;;;;4947568;29;20736;-60
2021/10/16 07:21:53;;;;;;;7.03;4.90;;;3.40;99.90;;;;;;4947677;28;20182;-58
2021/10/16 07:24:18;;;;;;;7.07;5.20;;;3.50;99.90;;;;;;4948692;28;20189;-59
2021/10/16 07:26:45;;;;;;;8.07;4.93;;;3.60;99.90;;;;;;4943555;28;20180;-59
2021/10/16 07:29:11;;;;;;;8.50;5.60;;;3.70;99.90;;;;;;4941916;28;20203;-58
2021/10/16 07:31:36;;;;;;;8.57;5.43;;;3.80;99.90;;;;;;4942201;28;20442;-59
2021/10/16 07:34:02;;;;;;;10.00;5.47;;;3.80;99.90;;;;;;4956126;28;20434;-61
2021/10/16 07:36:34;;;;;;;7.77;5.70;;;3.90;99.90;;;;;;4962316;28;20183;-59
2021/10/16 07:39:04;;;;;;;16.67;6.30;;;3.90;99.90;;;;;;4961560;28;20800;-59
2021/10/16 07:41:30;;;;;;;9.93;6.17;;;4.00;99.90;;;;;;4940602;28;20435;-59
2021/10/16 07:43:55;;;;;;;14.20;6.33;;;4.10;99.90;;;;;;4948749;29;20460;-60
2021/10/16 07:46:21;;;;;;;9.10;6.67;;;4.10;99.90;;;;;;4946506;29;20690;-58
2021/10/16 07:48:48;;;;;;;8.63;5.97;;;4.20;99.90;;;;;;4947667;29;20187;-60
2021/10/16 07:51:14;;;;;;;7.70;5.70;;;4.20;99.90;;;;;;4950844;29;20170;-60
2021/10/16 07:53:39;;;;;;;9.37;6.83;;;4.20;99.90;;;;;;4966595;28;20430;-60
2021/10/16 07:56:05;;;;;;;10.23;6.80;;;4.20;99.90;;;;;;4952816;29;20866;-60
2021/10/16 07:58:31;;;;;;;9.87;6.07;;;4.30;99.90;;;;;;4951983;29;20924;-58
2021/10/16 08:00:57;;;;;;;11.90;7.27;;;4.30;99.90;;;;;;4963426;28;20194;-59
2021/10/16 08:03:23;;;;;;;11.30;6.30;;;4.40;99.90;;;;;;4959122;28;20321;-59
2021/10/16 08:05:49;;;;;;;14.63;6.60;;;4.50;99.90;;;;;;4963904;28;20537;-59
2021/10/16 08:08:14;;;;;;;14.40;7.80;;;4.60;99.90;;;;;;4949210;29;20705;-59
2021/10/16 08:10:40;;;;;;;9.40;5.80;;;4.70;99.90;;;;;;4950443;28;20261;-59
2021/10/16 08:13:06;;;;;;;10.40;6.40;;;4.70;99.90;;;;;;4949597;29;20206;-59
2021/10/16 08:15:32;;;;;;;16.47;6.10;;;4.70;99.90;;;;;;4950684;29;20179;-58
2021/10/16 08:17:58;;;;;;;10.33;6.90;;;4.80;99.90;;;;;;4945453;29;20844;-59
2021/10/16 08:20:23;;;;;;;12.87;8.23;;;4.90;99.90;;;;;;4949787;29;20194;-59
2021/10/16 08:22:49;;;;;;;12.70;7.17;;;5.00;99.90;;;;;;4940001;29;20181;-59
2021/10/16 08:25:15;;;;;;;14.63;7.60;;;5.10;99.90;;;;;;4952925;29;20193;-59
2021/10/16 08:27:40;;;;;;;13.67;8.10;;;5.20;99.90;;;;;;4967727;28;20177;-60
2021/10/16 08:30:09;;;;;;;13.63;8.60;;;5.20;99.90;;;;;;4943258;29;20814;-59
2021/10/16 08:32:36;;;;;;;17.37;9.43;;;5.30;99.90;;;;;;4949977;29;20183;-60
2021/10/16 08:35:02;;;;;;;14.20;7.97;;;5.40;99.90;;;;;;4952278;28;20426;-58
2021/10/16 08:37:28;;;;;;;12.30;8.27;;;5.50;99.90;;;;;;4944722;29;20438;-59
2021/10/16 08:39:54;;;;;;;13.47;8.00;;;5.60;99.90;;;;;;4948689;28;20457;-60
2021/10/16 08:42:19;;;;;;;15.20;7.73;;;5.70;99.90;;;;;;4946231;29;20182;-60
2021/10/16 08:44:45;;;;;;;13.40;7.50;;;5.80;99.90;;;;;;4951591;28;20675;-58
2021/10/16 08:47:12;;;;;;;18.03;7.97;;;5.90;99.90;;;;;;4943905;29;20206;-59
2021/10/16 08:49:40;;;;;;;13.70;7.60;;;6.00;99.90;;;;;;4945816;29;20205;-59
2021/10/16 08:52:06;;;;;;;11.53;7.50;;;6.10;99.90;;;;;;4938880;29;20507;-58
2021/10/16 08:54:31;;;;;;;17.03;9.23;;;6.30;99.90;;;;;;4940853;29;20913;-60
2021/10/16 08:56:57;;;;;;;15.33;8.33;;;6.40;99.90;;;;;;4943465;28;20730;-59
2021/10/16 08:59:23;;;;;;;13.60;8.87;;;6.50;99.90;;;;;;4945132;28;20231;-59
2021/10/16 09:01:58;;;;;;;15.57;9.57;;;6.60;99.90;;;;;;4946993;29;20200;-59
2021/10/16 09:04:24;;;;;;;21.70;10.60;;;6.80;99.90;;;;;;4938284;28;20170;-60
2021/10/16 09:06:50;;;;;;;22.60;10.50;;;6.90;99.90;;;;;;4944896;28;20434;-60
2021/10/16 09:09:17;;;;;;;17.97;10.30;;;7.00;99.90;;;;;;4945537;28;20465;-60
2021/10/16 09:11:44;;;;;;;19.00;10.43;;;7.10;99.90;;;;;;4943046;29;20179;-63
2021/10/16 09:14:31;;;;;;;15.30;9.17;;;7.30;99.90;;;;;;4946473;29;20430;-60
2021/10/16 09:16:58;;;;;;;22.50;10.53;;;7.40;99.90;;;;;;4943439;28;20441;-60
2021/10/16 09:19:34;;;;;;;17.63;11.00;;;7.50;99.90;;;;;;4945614;29;20457;-60
2021/10/16 09:22:06;;;;;;;20.13;11.53;;;7.60;99.90;;;;;;4943305;28;20453;-60
2021/10/16 09:24:41;;;;;;;24.40;12.67;;;7.70;99.90;;;;;;4946554;29;20932;-59
2021/10/16 09:27:14;;;;;;;28.37;12.17;;;7.80;99.90;;;;;;4960952;28;21014;-61
2021/10/16 09:29:44;;;;;;;29.97;14.80;;;8.00;99.90;;;;;;4947023;28;20545;-61
2021/10/16 09:32:13;;;;;;;23.97;13.90;;;8.20;99.90;;;;;;4940143;28;21135;-59
2021/10/16 09:34:41;;;;;;;28.63;16.00;;;8.50;99.90;;;;;;4946291;28;20434;-60
2021/10/16 09:37:16;;;;;;;28.17;15.17;;;8.80;99.90;;;;;;4948095;28;20493;-60
2021/10/16 09:39:48;;;;;;;26.03;14.13;;;9.00;99.90;;;;;;4945255;28;20527;-61
2021/10/16 09:42:42;;;;;;;25.23;12.97;;;9.20;99.90;;;;;;4940569;28;20468;-61
2021/10/16 09:45:11;;;;;;;28.60;13.90;;;9.50;99.90;;;;;;4944465;28;20889;-60
2021/10/16 09:47:37;;;;;;;22.20;12.73;;;9.70;99.90;;;;;;4945477;28;20858;-60
2021/10/16 09:50:09;;;;;;;29.77;14.10;;;9.90;99.90;;;;;;4944062;29;20450;-60
2021/10/16 09:52:37;;;;;;;23.33;13.97;;;10.10;99.90;;;;;;4945050;28;21195;-60
2021/10/16 09:55:04;;;;;;;25.83;14.20;;;10.30;99.90;;;;;;4938925;28;20445;-59
2021/10/16 09:57:31;;;;;;;32.83;14.30;;;10.50;99.90;;;;;;4946855;28;20458;-59
2021/10/16 09:59:58;;;;;;;31.00;15.17;;;10.60;99.90;;;;;;4942981;28;20481;-61
2021/10/16 10:02:28;;;;;;;28.43;15.13;;;10.70;99.90;;;;;;4942711;28;20441;-59
2021/10/16 10:04:55;;;;;;;22.83;13.67;;;10.80;99.90;;;;;;4938545;28;20520;-60
2021/10/16 10:07:21;;;;;;;26.40;15.10;;;10.90;99.90;;;;;;4942090;28;20438;-60
2021/10/16 10:09:47;;;;;;;23.83;14.33;;;11.00;99.90;;;;;;4942648;28;20447;-62
2021/10/16 10:12:14;;;;;;;25.20;14.57;;;11.10;99.90;;;;;;4948676;29;20414;-60
2021/10/16 10:14:42;;;;;;;24.40;13.30;;;11.20;99.90;;;;;;4958294;28;20297;-61
2021/10/16 10:17:10;;;;;;;26.87;14.50;;;11.40;99.90;;;;;;4961446;28;20434;-58
2021/10/16 10:19:50;;;;;;;17.87;11.43;;;11.60;99.90;;;;;;4946688;28;20450;-61
2021/10/16 10:22:17;;;;;;;19.20;11.37;;;11.70;99.90;;;;;;4956823;28;20865;-61
2021/10/16 10:24:48;;;;;;;18.10;11.03;;;11.90;99.90;;;;;;4941021;28;20541;-58
2021/10/16 10:27:15;;;;;;;20.80;11.33;;;12.10;99.90;;;;;;4947097;29;20438;-60
2021/10/16 10:29:43;;;;;;;21.17;10.70;;;12.30;99.90;;;;;;4942737;28;20454;-60
2021/10/16 10:32:20;;;;;;;16.50;10.23;;;12.50;99.50;;;;;;4945361;29;20983;-61
2021/10/16 10:34:54;;;;;;;17.97;11.23;;;12.70;99.20;;;;;;4943086;28;20452;-59
2021/10/16 10:37:20;;;;;;;18.13;11.13;;;12.90;96.90;;;;;;4946214;29;20470;-59
2021/10/16 10:39:51;;;;;;;19.10;11.20;;;13.00;95.80;;;;;;4948151;28;20461;-60
2021/10/16 10:42:17;;;;;;;20.80;11.40;;;13.20;95.40;;;;;;4962055;28;20552;-59
2021/10/16 10:44:50;;;;;;;19.27;11.03;;;13.30;95.50;;;;;;4950903;29;20461;-60
2021/10/16 10:47:28;;;;;;;25.33;11.87;;;13.50;96.30;;;;;;4948183;29;20566;-60
2021/10/16 10:49:56;;;;;;;16.73;11.37;;;13.70;95.10;;;;;;4947926;29;20452;-61
2021/10/16 10:52:24;;;;;;;16.40;10.60;;;13.70;91.40;;;;;;4963988;28;20414;-61
2021/10/16 10:55:13;;;;;;;20.33;11.53;;;13.60;92.20;;;;;;4947515;28;20422;-60
2021/10/16 10:57:46;;;;;;;20.10;9.00;;;13.90;95.10;;;;;;4957446;28;20433;-60
2021/10/16 11:00:13;;;;;;;18.00;10.27;;;14.30;96.30;;;;;;4944355;28;21076;-59
2021/10/16 11:02:40;;;;;;;17.60;10.60;;;15.00;93.80;;;;;;4946893;29;20429;-60
2021/10/16 11:05:35;;;;;;;17.53;10.67;;;15.70;78.00;;;;;;4946819;28;20472;-60
2021/10/16 11:08:14;;;;;;;13.40;9.00;;;16.30;67.40;;;;;;4938075;28;20541;-59
2021/10/16 11:10:41;;;;;;;14.10;9.33;;;16.90;64.50;;;;;;4944698;28;20449;-57
2021/10/16 11:13:18;;;;;;;15.37;9.10;;;17.50;60.00;;;;;;4943329;28;20973;-60
2021/10/16 11:15:55;;;;;;;10.90;7.17;;;17.90;57.90;;;;;;4945731;28;20508;-60
2021/10/16 11:18:23;;;;;;;11.10;7.77;;;18.30;56.00;;;;;;4947607;28;20512;-59
2021/10/16 11:20:49;;;;;;;15.83;8.80;;;18.40;53.70;;;;;;4949057;28;20457;-59
2021/10/16 11:23:21;;;;;;;12.30;8.53;;;17.80;53.50;;;;;;4947424;29;20835;-58
2021/10/16 11:26:02;;;;;;;10.50;7.80;;;17.30;55.00;;;;;;4949214;28;20273;-60
2021/10/16 11:28:30;;;;;;;18.50;7.90;;;17.40;56.70;;;;;;4948875;29;20449;-60
2021/10/16 11:30:57;;;;;;;15.73;8.50;;;17.60;55.50;;;;;;4945729;29;20445;-60
2021/10/16 11:33:29;;;;;;;11.07;6.60;;;18.10;54.00;;;;;;4946882;29;20422;-58
2021/10/16 11:35:58;;;;;;;9.07;5.80;;;18.30;53.60;;;;;;4940742;29;20798;-59
2021/10/16 11:38:36;;;;;;;11.77;6.30;;;18.50;53.50;;;;;;4950394;29;20430;-58
2021/10/16 11:41:04;;;;;;;7.53;6.07;;;18.00;52.80;;;;;;4943357;28;20456;-60
2021/10/16 11:43:39;;;;;;;11.10;5.90;;;17.80;52.40;;;;;;4947337;28;20520;-59
2021/10/16 11:46:22;;;;;;;15.23;5.03;;;17.50;52.90;;;;;;4942347;28;20470;-60
2021/10/16 11:48:49;;;;;;;6.40;4.40;;;18.00;53.80;;;;;;4944210;28;20453;-60
2021/10/16 11:51:14;;;;;;;5.93;4.70;;;19.00;52.90;;;;;;4950149;28;20965;-61
2021/10/16 11:53:44;;;;;;;5.13;4.00;;;19.90;48.90;;;;;;4940966;28;20431;-61
2021/10/16 11:56:13;;;;;;;7.20;4.77;;;20.70;47.40;;;;;;4948026;28;20663;-60
2021/10/16 11:58:40;;;;;;;7.47;4.37;;;21.60;47.20;;;;;;4945029;29;20434;-61
2021/10/16 12:01:10;;;;;;;6.10;4.60;;;22.20;45.60;;;;;;4940137;28;20441;-60
2021/10/16 12:03:46;;;;;;;10.13;5.10;;;22.90;44.00;;;;;;4948222;28;20166;-59
2021/10/16 12:06:18;;;;;;;5.53;4.00;;;23.50;44.10;;;;;;4944822;28;20216;-60
2021/10/16 12:08:48;;;;;;;6.18;3.92;;;23.90;42.90;;;;;;4960638;28;20174;-61
2021/10/16 12:11:30;;;;;;;4.57;3.50;;;24.30;41.80;;;;;;4945209;28;20178;-61
2021/10/16 12:14:00;;;;;;;4.90;3.88;;;24.40;41.40;;;;;;4941717;28;20186;-60
2021/10/16 12:16:34;;;;;;;12.93;4.07;;;24.60;41.10;;;;;;4946167;29;20189;-60
2021/10/16 12:19:02;;;;;;;11.63;4.70;;;24.80;40.90;;;;;;4946835;28;20208;-60
2021/10/16 12:21:32;;;;;;;10.45;4.60;;;25.00;40.10;;;;;;4947638;28;20170;-62
2021/10/16 12:24:02;;;;;;;8.35;3.80;;;25.10;39.20;;;;;;4947268;28;20189;-62
2021/10/16 12:26:33;;;;;;;14.57;4.25;;;25.00;39.00;;;;;;4947223;29;20202;-60
2021/10/16 12:29:03;;;;;;;6.88;3.55;;;25.00;39.10;;;;;;4947212;29;20205;-61
2021/10/16 12:31:29;;;;;;;4.05;3.65;;;24.80;38.80;;;;;;4940169;29;20229;-61
2021/10/16 12:34:08;;;;;;;6.63;3.30;;;24.70;38.80;;;;;;4939029;29;20174;-62
2021/10/16 12:36:42;;;;;;;17.92;3.90;;;24.50;39.10;;;;;;4945508;29;20227;-62
2021/10/16 12:39:10;;;;;;;4.65;3.78;;;24.30;39.70;;;;;;4943042;29;20209;-62
2021/10/16 12:41:39;;;;;;;5.70;3.40;;;23.90;39.90;;;;;;4945123;29;20170;-61
2021/10/16 12:44:21;;;;;;;3.50;3.20;;;23.70;40.10;;;;;;4945738;29;20240;-62
2021/10/16 12:46:50;;;;;;;4.63;3.40;;;23.40;40.20;;;;;;4943980;29;20304;-61